createdAt,value
2022-09-23T00:01:33.745Z,6.15
2022-09-23T00:04:00.081Z,6.10
2022-09-23T00:06:28.132Z,9.30
2022-09-23T00:08:54.626Z,4.93
2022-09-23T00:11:25.238Z,9.73
2022-09-23T00:16:22.573Z,10.45
2022-09-23T00:18:51.591Z,5.22
2022-09-23T00:21:18.412Z,8.40
2022-09-23T00:23:44.654Z,12.52
2022-09-23T00:26:12.544Z,6.55
2022-09-23T00:28:38.826Z,8.55
2022-09-23T00:31:06.472Z,11.70
2022-09-23T00:33:32.962Z,7.78
2022-09-23T00:36:00.542Z,10.57
2022-09-23T00:38:26.771Z,11.50
2022-09-23T00:40:52.999Z,6.38
2022-09-23T00:43:19.266Z,11.40
2022-09-23T00:45:47.463Z,12.52
2022-09-23T00:48:17.472Z,6.38
2022-09-23T00:50:45.531Z,7.40
2022-09-23T00:53:14.004Z,5.55
2022-09-23T00:55:42.973Z,5.90
2022-09-23T00:58:11.003Z,13.45
2022-09-23T01:00:37.567Z,11.52
2022-09-23T01:03:05.056Z,10.25
2022-09-23T01:05:32.042Z,7.80
2022-09-23T01:07:58.739Z,10.48
2022-09-23T01:10:25.039Z,5.75
2022-09-23T01:12:54.251Z,6.80
2022-09-23T01:15:28.113Z,8.95
2022-09-23T01:18:14.269Z,5.15
2022-09-23T01:20:59.185Z,8.52
2022-09-23T01:23:28.414Z,5.53
2022-09-23T01:26:23.819Z,6.00
2022-09-23T01:29:12.717Z,9.85
2022-09-23T01:31:43.550Z,6.93
2022-09-23T01:34:12.438Z,9.63
2022-09-23T01:36:48.898Z,8.27
2022-09-23T01:39:24.106Z,13.15
2022-09-23T01:41:53.946Z,9.02
2022-09-23T01:44:20.190Z,10.27
2022-09-23T01:46:54.259Z,5.35
2022-09-23T01:49:25.241Z,7.13
2022-09-23T01:51:55.619Z,4.38
2022-09-23T01:54:21.820Z,11.57
2022-09-23T01:56:51.736Z,12.95
2022-09-23T01:59:47.099Z,9.82
2022-09-23T02:02:15.994Z,5.90
2022-09-23T02:04:51.529Z,6.85
2022-09-23T02:07:20.307Z,7.10
2022-09-23T02:09:48.970Z,8.65
2022-09-23T02:12:17.355Z,6.45
2022-09-23T02:14:52.605Z,8.25
2022-09-23T02:17:24.829Z,5.20
2022-09-23T02:19:54.100Z,11.02
2022-09-23T02:22:40.601Z,4.97
2022-09-23T02:25:07.822Z,4.78
2022-09-23T02:27:40.730Z,5.63
2022-09-23T02:30:11.418Z,5.18
2022-09-23T02:32:49.690Z,5.03
2022-09-23T02:35:15.964Z,4.22
2022-09-23T02:37:43.570Z,4.35
2022-09-23T02:40:14.460Z,12.30
2022-09-23T02:42:49.743Z,6.68
2022-09-23T02:45:16.357Z,11.35
2022-09-23T02:47:44.665Z,7.90
2022-09-23T02:50:10.918Z,6.30
2022-09-23T02:52:38.635Z,4.78
2022-09-23T02:55:06.443Z,6.13
2022-09-23T02:57:32.720Z,10.05
2022-09-23T02:59:58.949Z,7.45
2022-09-23T03:02:36.067Z,6.85
2022-09-23T03:05:18.270Z,5.47
2022-09-23T03:07:56.475Z,8.60
2022-09-23T03:10:22.728Z,9.57
2022-09-23T03:12:57.982Z,6.20
2022-09-23T03:15:36.166Z,5.63
2022-09-23T03:18:09.511Z,10.32
2022-09-23T03:20:54.514Z,10.52
2022-09-23T03:23:26.720Z,9.98
2022-09-23T03:25:54.488Z,7.95
2022-09-23T03:28:22.556Z,11.20
2022-09-23T03:30:52.900Z,9.07
2022-09-23T03:33:23.899Z,6.50
2022-09-23T03:36:13.321Z,5.97
2022-09-23T03:38:43.076Z,6.50
2022-09-23T03:41:10.726Z,10.10
2022-09-23T03:43:39.011Z,8.13
2022-09-23T03:46:06.940Z,6.03
2022-09-23T03:48:33.300Z,6.43
2022-09-23T03:51:01.782Z,7.07
2022-09-23T03:53:28.012Z,6.93
2022-09-23T03:55:54.236Z,10.82
2022-09-23T03:58:20.478Z,6.72
2022-09-23T04:00:46.803Z,11.07
2022-09-23T04:03:13.087Z,6.35
2022-09-23T04:05:39.376Z,10.10
2022-09-23T04:08:05.615Z,7.68
2022-09-23T04:10:31.852Z,10.68
2022-09-23T04:12:58.065Z,5.25
2022-09-23T04:15:24.459Z,8.40
2022-09-23T04:17:50.680Z,9.13
2022-09-23T04:20:17.385Z,9.45
2022-09-23T04:22:43.611Z,9.23
2022-09-23T04:25:10.052Z,15.02
2022-09-23T04:27:37.963Z,7.03
2022-09-23T04:30:05.062Z,7.00
2022-09-23T04:32:31.727Z,9.70
2022-09-23T04:34:57.947Z,11.35
2022-09-23T04:37:24.150Z,15.55
2022-09-23T04:39:50.378Z,10.80
2022-09-23T04:42:16.581Z,10.93
2022-09-23T04:44:42.910Z,9.68
2022-09-23T04:47:09.178Z,11.43
2022-09-23T04:49:35.550Z,11.43
2022-09-23T04:52:02.692Z,18.10
2022-09-23T04:54:29.443Z,10.70
2022-09-23T04:56:55.826Z,9.27
2022-09-23T04:59:22.062Z,11.32
2022-09-23T05:01:48.417Z,15.80
2022-09-23T05:04:14.788Z,13.23
2022-09-23T05:06:43.859Z,13.38
2022-09-23T05:09:10.290Z,10.77
2022-09-23T05:11:36.539Z,13.70
2022-09-23T05:14:02.811Z,15.35
2022-09-23T05:16:29.363Z,22.00
2022-09-23T05:18:55.755Z,15.68
2022-09-23T05:21:23.034Z,14.82
2022-09-23T05:23:51.363Z,12.75
2022-09-23T05:26:17.641Z,19.38
2022-09-23T05:28:44.103Z,13.10
2022-09-23T05:31:19.672Z,15.98
2022-09-23T05:33:52.002Z,17.75
2022-09-23T05:36:19.833Z,12.98
2022-09-23T05:38:46.055Z,13.18
2022-09-23T05:41:13.382Z,15.10
2022-09-23T05:43:39.724Z,15.25
2022-09-23T05:46:08.482Z,13.10
2022-09-23T05:48:35.645Z,15.05
2022-09-23T05:51:02.171Z,12.45
2022-09-23T05:53:29.497Z,18.15
2022-09-23T05:55:56.401Z,11.18
2022-09-23T05:58:23.519Z,14.63
2022-09-23T06:00:50.319Z,15.60
2022-09-23T06:03:17.866Z,24.90
2022-09-23T06:05:44.356Z,16.15
2022-09-23T06:08:10.687Z,16.65
2022-09-23T06:10:37.555Z,22.38
2022-09-23T06:13:03.927Z,17.50
2022-09-23T06:15:30.154Z,25.60
2022-09-23T06:17:56.629Z,41.45
2022-09-23T06:20:22.884Z,33.17
2022-09-23T06:22:52.518Z,26.02
2022-09-23T06:25:22.915Z,19.83
2022-09-23T06:27:54.269Z,18.27
2022-09-23T06:30:21.346Z,18.58
2022-09-23T06:32:48.346Z,18.88
2022-09-23T06:35:24.971Z,28.17
2022-09-23T06:37:53.884Z,25.50
2022-09-23T06:40:20.563Z,18.52
2022-09-23T06:42:51.472Z,22.88
2022-09-23T06:45:18.535Z,18.63
2022-09-23T06:47:44.755Z,16.45
2022-09-23T06:50:12.519Z,17.23
2022-09-23T06:52:38.940Z,14.27
2022-09-23T06:55:05.473Z,19.52
2022-09-23T06:57:33.054Z,21.00
2022-09-23T06:59:59.476Z,19.95
2022-09-23T07:02:26.312Z,17.92
2022-09-23T07:04:52.943Z,26.67
2022-09-23T07:07:19.354Z,22.58
2022-09-23T07:09:45.678Z,23.13
2022-09-23T07:12:12.206Z,20.35
2022-09-23T07:14:38.439Z,26.00
2022-09-23T07:17:04.725Z,18.35
2022-09-23T07:19:30.971Z,20.65
2022-09-23T07:21:57.220Z,16.33
2022-09-23T07:24:23.466Z,22.60
2022-09-23T07:26:49.693Z,19.17
2022-09-23T07:29:15.914Z,19.80
2022-09-23T07:31:43.043Z,16.40
2022-09-23T07:34:11.271Z,29.80
2022-09-23T07:36:40.551Z,17.48
2022-09-23T07:39:08.475Z,15.57
2022-09-23T07:41:34.798Z,16.17
2022-09-23T07:44:01.137Z,17.55
2022-09-23T07:46:28.662Z,11.25
2022-09-23T07:48:55.054Z,19.42
2022-09-23T07:51:25.303Z,15.00
2022-09-23T07:53:52.503Z,17.83
2022-09-23T07:56:19.391Z,19.95
2022-09-23T07:59:00.973Z,17.38
2022-09-23T08:01:37.324Z,18.67
2022-09-23T08:04:05.603Z,17.55
2022-09-23T08:06:32.019Z,16.15
2022-09-23T08:08:59.379Z,24.63
2022-09-23T08:11:26.683Z,19.55
2022-09-23T08:13:53.709Z,18.00
2022-09-23T08:16:20.602Z,17.40
2022-09-23T08:18:47.041Z,14.70
2022-09-23T08:21:18.395Z,13.95
2022-09-23T08:23:44.635Z,16.52
2022-09-23T08:26:19.231Z,18.55
2022-09-23T08:28:47.907Z,11.85
2022-09-23T08:31:14.423Z,16.77
2022-09-23T08:33:40.940Z,11.05
2022-09-23T08:36:07.735Z,13.27
2022-09-23T08:38:34.014Z,11.18
2022-09-23T08:41:23.090Z,11.65
2022-09-23T08:43:51.966Z,18.00
2022-09-23T08:46:21.865Z,19.10
2022-09-23T08:48:48.987Z,17.52
2022-09-23T08:51:17.480Z,16.73
2022-09-23T08:53:45.418Z,13.32
2022-09-23T08:56:13.524Z,16.20
2022-09-23T08:58:43.804Z,20.33
2022-09-23T09:01:10.073Z,15.80
2022-09-23T09:03:47.886Z,14.90
2022-09-23T09:06:17.786Z,16.20
2022-09-23T09:08:45.802Z,16.27
2022-09-23T09:11:13.695Z,16.58
2022-09-23T09:14:01.458Z,13.73
2022-09-23T09:16:59.544Z,17.17
2022-09-23T09:19:30.411Z,12.77
2022-09-23T09:21:57.018Z,13.95
2022-09-23T09:24:31.448Z,9.90
2022-09-23T09:26:57.785Z,20.80
2022-09-23T09:29:35.708Z,12.48
2022-09-23T09:32:13.891Z,13.40
2022-09-23T09:35:06.440Z,17.80
2022-09-23T09:37:46.702Z,15.50
2022-09-23T09:40:13.710Z,10.38
2022-09-23T09:42:40.943Z,12.60
2022-09-23T09:45:26.189Z,14.82
2022-09-23T09:48:13.410Z,9.55
2022-09-23T09:50:44.287Z,15.20
2022-09-23T09:53:20.130Z,11.57
2022-09-23T09:55:48.280Z,14.02
2022-09-23T09:58:16.386Z,17.60
2022-09-23T10:00:44.280Z,23.17
2022-09-23T10:03:13.271Z,9.75
2022-09-23T10:05:45.400Z,9.07
2022-09-23T10:08:26.703Z,14.15
2022-09-23T10:10:59.057Z,12.57
2022-09-23T10:13:27.196Z,12.10
2022-09-23T10:15:56.751Z,11.32
2022-09-23T10:18:27.949Z,17.90
2022-09-23T10:20:59.667Z,10.52
2022-09-23T10:23:27.536Z,13.55
2022-09-23T10:26:05.218Z,8.63
2022-09-23T10:28:43.735Z,10.70
2022-09-23T10:31:13.045Z,13.15
2022-09-23T10:33:46.876Z,10.82
2022-09-23T10:36:14.636Z,8.07
2022-09-23T10:38:40.906Z,7.97
2022-09-23T10:41:32.014Z,14.90
2022-09-23T10:44:16.369Z,11.88
2022-09-23T10:47:00.683Z,12.35
2022-09-23T10:49:39.116Z,14.05
2022-09-23T10:52:08.151Z,11.40
2022-09-23T10:54:37.260Z,10.35
2022-09-23T10:57:32.047Z,9.23
2022-09-23T11:00:03.148Z,12.43
2022-09-23T11:02:29.350Z,14.05
2022-09-23T11:05:15.272Z,11.57
2022-09-23T11:08:10.670Z,12.20
2022-09-23T11:10:55.743Z,6.53
2022-09-23T11:13:38.029Z,11.13
2022-09-23T11:16:22.734Z,10.45
2022-09-23T11:18:49.708Z,14.57
2022-09-23T11:21:43.402Z,10.30
2022-09-23T11:24:12.055Z,11.48
2022-09-23T11:26:53.024Z,12.60
2022-09-23T11:29:42.367Z,7.80
2022-09-23T11:32:08.627Z,6.30
2022-09-23T11:34:55.021Z,7.80
2022-09-23T11:37:25.087Z,7.90
2022-09-23T11:39:57.152Z,7.32
2022-09-23T11:42:25.177Z,9.93
2022-09-23T11:45:18.877Z,14.57
2022-09-23T11:47:48.708Z,9.75
2022-09-23T11:50:20.635Z,9.55
2022-09-23T11:52:53.206Z,8.35
2022-09-23T11:55:23.407Z,12.50
2022-09-23T11:57:53.983Z,6.63
2022-09-23T12:03:06.426Z,10.82
2022-09-23T12:05:35.312Z,9.75
2022-09-23T12:08:17.791Z,7.95
2022-09-23T12:11:01.506Z,5.68
2022-09-23T12:13:30.622Z,10.48
2022-09-23T12:16:15.756Z,7.07
2022-09-23T12:18:53.919Z,10.38
2022-09-23T12:21:39.144Z,8.80
2022-09-23T12:24:21.761Z,4.85
2022-09-23T14:53:50.902Z,11.27
2022-09-23T14:56:18.597Z,12.98
2022-09-23T14:58:49.476Z,10.30
2022-09-23T15:01:25.543Z,22.65
2022-09-23T15:03:52.736Z,12.45
2022-09-23T15:06:19.708Z,11.68
2022-09-23T15:08:46.001Z,13.45
2022-09-23T15:11:12.238Z,13.43
2022-09-23T15:13:40.341Z,19.42
2022-09-23T15:16:07.104Z,14.02
2022-09-23T15:18:34.458Z,13.02
2022-09-23T15:21:02.403Z,13.52
2022-09-23T15:23:40.817Z,16.08
2022-09-23T15:26:09.606Z,17.77
2022-09-23T15:28:35.830Z,13.23
2022-09-23T15:31:03.062Z,12.95
2022-09-23T15:33:29.829Z,13.57
2022-09-23T15:35:56.105Z,13.98
2022-09-23T15:38:22.400Z,17.77
2022-09-23T15:40:49.141Z,11.75
2022-09-23T15:43:23.164Z,13.60
2022-09-23T15:45:54.494Z,14.55
2022-09-23T15:48:22.669Z,12.48
2022-09-23T15:50:52.293Z,19.40
2022-09-23T15:53:22.659Z,19.97
2022-09-23T15:58:18.427Z,21.10
2022-09-23T16:00:44.929Z,22.95
2022-09-23T16:03:15.365Z,23.40
2022-09-23T16:08:09.670Z,20.27
2022-09-23T16:10:36.724Z,16.10
2022-09-23T16:13:03.917Z,17.27
2022-09-23T16:15:31.650Z,11.35
2022-09-23T16:17:58.391Z,12.52
2022-09-23T16:20:26.262Z,17.35
2022-09-23T16:22:58.227Z,23.65
2022-09-23T16:25:27.977Z,19.55
2022-09-23T16:27:58.045Z,13.50
2022-09-23T16:30:24.983Z,20.48
2022-09-23T16:32:54.062Z,23.38
2022-09-23T16:35:21.208Z,24.20
2022-09-23T16:37:47.895Z,17.25
2022-09-23T16:40:21.061Z,29.65
2022-09-23T16:42:47.875Z,21.70
2022-09-23T16:45:16.743Z,23.20
2022-09-23T16:47:46.839Z,16.23
2022-09-23T16:50:13.887Z,16.35
2022-09-23T16:52:40.639Z,20.73
2022-09-23T16:55:08.610Z,19.70
2022-09-23T16:57:36.955Z,18.20
2022-09-23T17:00:24.083Z,15.48
2022-09-23T17:03:08.904Z,19.02
2022-09-23T17:05:35.167Z,32.20
2022-09-23T17:08:01.619Z,21.70
2022-09-23T17:10:28.063Z,22.02
2022-09-23T17:12:54.561Z,23.80
2022-09-23T17:15:21.589Z,24.30
2022-09-23T17:17:47.944Z,26.67
2022-09-23T17:20:14.330Z,20.83
2022-09-23T17:22:41.395Z,22.10
2022-09-23T17:25:08.744Z,27.75
2022-09-23T17:27:35.694Z,24.70
2022-09-23T17:30:02.247Z,23.20
2022-09-23T17:32:28.526Z,26.45
2022-09-23T17:34:54.779Z,23.75
2022-09-23T17:37:21.015Z,21.27
2022-09-23T17:39:47.323Z,20.80
2022-09-23T17:42:15.158Z,20.70
2022-09-23T17:44:41.461Z,35.15
2022-09-23T17:47:07.667Z,25.42
2022-09-23T17:49:35.206Z,23.23
2022-09-23T17:52:04.212Z,33.03
2022-09-23T17:54:31.957Z,24.30
2022-09-23T17:57:01.076Z,28.45
2022-09-23T17:59:27.350Z,23.70
2022-09-23T18:01:54.068Z,27.52
2022-09-23T18:04:20.767Z,32.90
2022-09-23T18:06:47.293Z,26.40
2022-09-23T18:09:13.901Z,50.67
2022-09-23T18:11:41.180Z,31.02
2022-09-23T18:14:18.363Z,31.95
2022-09-23T18:16:45.856Z,32.10
2022-09-23T18:19:13.402Z,27.25
2022-09-23T18:21:41.015Z,26.83
2022-09-23T18:24:30.735Z,28.58
2022-09-23T18:26:56.026Z,30.75
2022-09-23T18:29:22.233Z,30.70
2022-09-23T18:31:49.236Z,33.45
2022-09-23T18:34:20.111Z,30.55
2022-09-23T18:36:46.422Z,28.85
2022-09-23T18:39:12.724Z,28.95
2022-09-23T18:41:39.059Z,26.67
2022-09-23T18:44:05.447Z,28.88
2022-09-23T18:46:31.787Z,27.38
2022-09-23T18:49:17.524Z,31.83
2022-09-23T18:52:01.782Z,31.65
2022-09-23T18:54:28.693Z,35.65
2022-09-23T18:56:55.379Z,30.20
2022-09-23T18:59:24.736Z,31.33
2022-09-23T19:01:51.424Z,30.00
2022-09-23T19:04:18.630Z,31.08
2022-09-23T19:06:45.117Z,43.63
2022-09-23T19:09:12.121Z,32.28
2022-09-23T19:11:38.778Z,29.00
2022-09-23T19:14:06.364Z,28.90
2022-09-23T19:16:32.874Z,26.35
2022-09-23T19:18:59.737Z,28.20
2022-09-23T19:21:26.550Z,27.50
2022-09-23T19:23:53.902Z,27.67
2022-09-23T19:26:24.756Z,33.65
2022-09-23T19:28:54.670Z,24.30
2022-09-23T19:31:22.884Z,29.35
2022-09-23T19:33:56.586Z,28.30
2022-09-23T19:36:23.695Z,30.95
2022-09-23T19:38:52.507Z,26.63
2022-09-23T19:41:20.003Z,24.17
2022-09-23T19:43:46.264Z,26.15
2022-09-23T19:46:12.509Z,31.35
2022-09-23T19:48:38.839Z,26.70
2022-09-23T19:51:05.145Z,28.08
2022-09-23T19:53:31.372Z,33.78
2022-09-23T19:55:57.780Z,30.20
2022-09-23T19:58:25.506Z,29.48
2022-09-23T20:00:51.852Z,32.70
2022-09-23T20:03:18.199Z,29.00
2022-09-23T20:05:44.403Z,29.13
2022-09-23T20:08:10.615Z,31.65
2022-09-23T20:10:38.288Z,30.45
2022-09-23T20:13:04.514Z,30.17
2022-09-23T20:15:30.724Z,37.15
2022-09-23T20:17:57.004Z,29.80
2022-09-23T20:20:23.260Z,30.13
2022-09-23T20:22:51.973Z,33.67
2022-09-23T20:25:18.294Z,29.45
2022-09-23T20:27:47.959Z,29.35
2022-09-23T20:30:14.334Z,27.03
2022-09-23T20:34:56.285Z,33.08
2022-09-23T20:37:24.355Z,30.45
2022-09-23T20:39:51.800Z,24.52
2022-09-23T20:42:19.257Z,30.23
2022-09-23T20:44:46.201Z,28.48
2022-09-23T20:47:16.012Z,29.83
2022-09-23T20:49:43.806Z,36.30
2022-09-23T20:52:10.582Z,26.83
2022-09-23T20:54:38.801Z,31.25
2022-09-23T20:57:06.132Z,34.60
2022-09-23T20:59:32.947Z,32.42
2022-09-23T21:01:59.254Z,32.60
2022-09-23T21:04:25.579Z,33.40
2022-09-23T21:06:51.852Z,35.38
2022-09-23T21:09:18.243Z,34.28
2022-09-23T21:11:44.463Z,33.83
2022-09-23T21:14:10.861Z,29.45
2022-09-23T21:16:37.205Z,39.75
2022-09-23T21:19:03.912Z,32.08
2022-09-23T21:21:30.499Z,30.00
2022-09-23T21:24:11.702Z,29.15
2022-09-23T21:26:47.182Z,28.50
2022-09-23T21:29:13.786Z,30.42
2022-09-23T21:31:40.088Z,30.02
2022-09-23T21:34:07.686Z,29.17
2022-09-23T21:36:36.920Z,31.30
2022-09-23T21:39:04.458Z,29.55
2022-09-23T21:41:31.076Z,27.08
2022-09-23T21:43:57.729Z,33.15
2022-09-23T21:46:24.931Z,34.38
2022-09-23T21:48:54.989Z,27.00
2022-09-23T21:51:25.502Z,31.15
2022-09-23T21:56:21.110Z,28.83
2022-09-23T21:58:47.821Z,34.10
2022-09-23T22:01:24.400Z,33.05
2022-09-23T22:03:52.090Z,29.95
2022-09-23T22:06:21.243Z,31.75
2022-09-23T22:08:49.108Z,32.92
2022-09-23T22:11:35.315Z,32.13
2022-09-23T22:14:03.241Z,31.83
2022-09-23T22:16:29.784Z,36.90
2022-09-23T22:18:57.235Z,33.15
2022-09-23T22:21:24.244Z,33.20
2022-09-23T22:23:54.273Z,34.80
2022-09-23T22:26:20.493Z,38.20
2022-09-23T22:29:05.466Z,35.42
2022-09-23T22:31:50.424Z,30.27
2022-09-23T22:34:37.684Z,35.97
2022-09-23T22:37:03.183Z,35.13
2022-09-23T22:39:30.085Z,39.08
2022-09-23T22:41:58.347Z,38.78
2022-09-23T22:44:29.285Z,38.22
2022-09-23T22:46:57.013Z,39.10
2022-09-23T22:49:23.287Z,36.53
2022-09-23T22:51:50.695Z,40.17
2022-09-23T22:54:16.917Z,42.38
2022-09-23T22:56:43.861Z,37.35
2022-09-23T22:59:10.527Z,43.00
2022-09-23T23:01:37.024Z,39.10
2022-09-23T23:04:03.758Z,39.05
2022-09-23T23:06:35.931Z,43.13
2022-09-23T23:09:13.807Z,42.50
2022-09-23T23:11:40.588Z,42.33
2022-09-23T23:14:06.855Z,38.65
2022-09-23T23:16:35.561Z,40.10
2022-09-23T23:19:04.127Z,43.15
2022-09-23T23:21:30.384Z,45.28
2022-09-23T23:23:56.607Z,44.47
2022-09-23T23:26:23.864Z,50.25
2022-09-23T23:28:50.768Z,42.75
2022-09-23T23:31:18.869Z,43.35
2022-09-23T23:33:45.369Z,37.60
2022-09-23T23:36:13.081Z,42.05
2022-09-23T23:38:40.584Z,43.03
2022-09-23T23:41:09.762Z,39.75
2022-09-23T23:43:36.284Z,44.33
2022-09-23T23:46:02.547Z,38.90
2022-09-23T23:48:29.184Z,40.63
2022-09-23T23:50:56.111Z,39.08
2022-09-23T23:53:23.231Z,35.72
2022-09-23T23:55:49.994Z,34.17
2022-09-23T23:58:17.831Z,35.35
